Latest Weather Observations for Camooweal

IDQ60801

Issued at 7:32 pm EST Friday 12 February 2016 (issued every 30 minutes, with the page automatically refreshed every 10 minutes)

About weather observations | Map of weather stations | Latest weather observations for QLD | Other Formats
Station Details ID: 037010 Name: CAMOOWEAL TOWNSHIP Lat: -19.92 Lon: 138.12 Height: 231.2 m
Data from the previous 72 hours. | See also: Recent months at Camooweal
Date/Time
EST
Temp
°C
App
Temp
°C
Dew
Point
Rel
Hum
%
Delta-T
°C
Wind Press
QNH
hPa
Press
MSL
hPa
Rain
since 9 am
mm
Dir
 
Spd
km/h
Gust
km/h
Spd
kts
Gust
kts
12/07:30pm 36.1 33.6 9.6 20 15.5 ESE 13 19 7 10 1007.4 1005.6 0.0
12/07:00pm 37.2 35.5 9.7 19 16.2 ESE 9 17 5 9 1007.0 1005.2 0.0
12/06:30pm 37.8 33.7 8.6 17 16.9 E 20 32 11 17 1006.9 1005.1 0.0
12/06:00pm 38.8 35.5 9.4 17 17.3 SSE 17 24 9 13 1006.7 1004.9 0.0
12/05:30pm 38.8 35.6 8.5 16 17.6 SSE 15 22 8 12 1006.8 1005.0 0.0
12/05:00pm 38.6 34.8 7.4 15 17.8 ESE 17 32 9 17 1006.9 1005.1 0.0
12/04:30pm 39.0 36.1 9.5 17 17.4 SSE 15 32 8 17 1007.0 1005.2 0.0
12/04:00pm 38.9 35.8 10.3 18 17.1 SSE 17 28 9 15 1007.1 1005.3 0.0
12/03:30pm 38.7 35.7 12.5 21 16.1 ESE 20 33 11 18 1007.4 1005.6 0.0
12/03:00pm 38.6 35.3 10.9 19 16.7 SE 19 30 10 16 1007.7 1005.9 0.0
12/02:30pm 38.4 35.7 13.6 23 15.4 ESE 20 30 11 16 1008.0 1006.3 0.0
12/02:00pm 37.9 35.0 11.1 20 16.1 SE 17 33 9 18 1008.4 1006.7 0.0
12/01:30pm 38.0 35.4 11.9 21 15.9 E 17 28 9 15 1008.9 1007.2 0.0
12/01:00pm 37.8 35.5 11.7 21 15.8 SE 15 28 8 15 1009.2 1007.5 0.0
12/12:30pm 37.6 35.5 12.3 22 15.4 SSE 15 30 8 16 1009.9 1008.2 0.0
12/12:00pm 36.5 35.4 12.0 23 14.8 ENE 9 20 5 11 1010.3 1008.6 0.0
12/11:30am 36.1 37.4 15.2 28 13.2 SE 2 9 1 5 1010.7 1008.9 0.0
12/11:00am 35.2 36.1 15.0 30 12.7 SE 4 13 2 7 1011.0 1009.2 0.0
12/10:30am 34.6 36.4 16.4 33 11.6 ENE 2 9 1 5 1011.4 1009.6 0.0
12/10:00am 33.0 35.6 18.4 42 9.6 NNW 2 9 1 5 1011.6 1009.8 0.0
12/09:30am 31.8 35.1 19.1 47 8.4 CALM 0 0 0 0 1011.6 1009.8 0.0
12/09:00am 30.8 34.7 20.4 54 7.0 CALM 0 0 0 0 1011.5 1009.7 0.0
12/08:30am 29.2 33.0 20.1 58 6.0 CALM 0 0 0 0 1011.5 1009.7 0.0
12/08:00am 28.3 32.3 20.6 63 5.1 CALM 0 0 0 0 1011.3 1009.5 0.0
12/07:30am 25.9 30.3 21.3 76 3.1 CALM 0 0 0 0 1011.0 1009.2 0.0
12/07:00am 24.5 29.1 21.8 85 1.8 CALM 0 2 0 1 1010.4 1008.7 0.0
12/06:30am 24.0 28.4 21.3 85 1.8 CALM 0 0 0 0 1010.0 1008.3 0.0
12/06:00am 24.9 28.7 21.0 79 2.6 N 2 9 1 5 1009.7 1008.0 0.0
12/05:30am 24.5 28.8 21.2 82 2.2 CALM 0 2 0 1 1009.4 1007.7 0.0
12/05:00am 25.0 29.1 20.7 77 2.8 CALM 0 0 0 0 1009.3 1007.6 0.0
12/04:30am 25.3 29.4 20.8 76 3.0 CALM 0 0 0 0 1009.0 1007.3 0.0
12/04:00am 25.3 28.7 21.0 77 2.9 N 4 7 2 4 1009.0 1007.3 0.0
12/03:30am 26.0 29.7 20.8 73 3.4 NNE 2 7 1 4 1009.2 1007.5 0.0
12/03:00am 25.8 29.9 20.8 74 3.3 CALM 0 0 0 0 1009.1 1007.4 0.0
12/02:30am 25.4 29.6 20.9 76 3.0 CALM 0 0 0 0 1009.1 1007.4 0.0
12/02:00am 25.4 29.3 20.4 74 3.3 CALM 0 0 0 0 1009.3 1007.6 0.0
12/01:30am 25.7 30.0 21.1 76 3.1 CALM 0 0 0 0 1009.4 1007.7 0.0
12/01:00am 26.2 30.7 21.6 76 3.1 CALM 0 0 0 0 1009.4 1007.7 0.0
12/12:30am 27.2 30.7 19.5 62 5.0 CALM 0 0 0 0 1009.5 1007.8 0.0
12/12:00am 28.5 30.7 18.3 54 6.6 NE 4 7 2 4 1009.7 1008.0 0.0
 
Date/Time
EST
Temp
°C
App
Temp
°C
Dew
Point
Rel
Hum
%
Delta-T
°C
Wind Press
QNH
hPa
Press
MSL
hPa
Rain
since 9 am
mm
Dir
 
Spd
km/h
Gust
km/h
Spd
kts
Gust
kts
11/11:30pm 29.0 30.8 18.4 52 6.9 NE 6 9 3 5 1009.9 1008.2 0.0
11/11:00pm 29.5 31.0 18.0 50 7.4 ENE 7 9 4 5 1009.6 1007.9 0.0
11/10:30pm 30.1 31.4 17.5 46 8.1 NE 7 11 4 6 1009.4 1007.7 0.0
11/10:00pm 30.4 31.5 17.1 44 8.5 NE 7 11 4 6 1008.9 1007.2 0.0
11/09:30pm 30.8 31.2 16.4 42 9.1 NE 9 11 5 6 1008.8 1007.1 0.0
11/09:00pm 31.5 32.3 16.3 40 9.6 NE 7 11 4 6 1008.5 1006.8 0.0
11/08:30pm 32.4 32.6 15.8 36 10.5 NE 9 11 5 6 1008.2 1006.5 0.0
11/08:00pm 33.0 33.5 15.5 35 11.0 ENE 7 11 4 6 1008.0 1006.3 0.0
11/07:30pm 33.8 33.1 14.3 31 12.1 E 11 17 6 9 1007.6 1005.8 0.0
11/07:00pm 34.8 32.5 13.0 26 13.3 E 17 24 9 13 1007.3 1005.5 0.0
11/06:30pm 35.6 33.3 13.1 25 13.8 ESE 17 28 9 15 1007.0 1005.2 0.0
11/06:00pm 36.2 33.9 13.0 24 14.3 ESE 17 28 9 15 1006.6 1004.8 0.0
11/05:30pm 36.8 34.1 12.9 24 14.7 SE 19 26 10 14 1006.3 1004.5 0.0
11/05:00pm 36.9 34.0 12.4 23 15.0 SE 19 30 10 16 1006.3 1004.5 0.0
11/04:30pm 37.1 34.9 13.2 24 14.7 SE 17 30 9 16 1006.2 1004.4 0.0
11/04:16pm 36.7 32.3 12.8 24 14.6 E 28 43 15 23 1006.3 1004.5 0.0
11/04:00pm 37.0 35.3 13.7 25 14.5 SE 15 24 8 13 1006.4 1004.6 0.0
11/03:30pm 36.6 34.5 14.6 27 13.8 ESE 19 28 10 15 1006.5 1004.7 0.0
11/03:00pm 36.6 35.1 16.2 29 13.1 ESE 19 30 10 16 1006.8 1005.0 0.0
11/02:30pm 36.5 35.3 16.1 29 13.1 ESE 17 28 9 15 1007.2 1005.4 0.0
11/02:00pm 34.9 33.4 15.3 31 12.4 SE 17 28 9 15 1007.7 1005.9 0.0
11/01:30pm 35.6 33.7 15.3 29 12.8 ESE 19 26 10 14 1008.1 1006.4 0.0
11/01:00pm 35.6 34.3 15.9 31 12.6 E 17 28 9 15 1008.6 1006.9 0.0
11/12:30pm 34.4 32.9 16.7 34 11.4 ESE 20 28 11 15 1009.1 1007.4 0.0
11/12:00pm 34.0 34.9 20.0 43 9.4 SE 15 28 8 15 1009.4 1007.7 0.0
11/11:30am 33.4 36.3 22.5 52 7.5 SSE 11 24 6 13 1009.8 1008.1 0.0
11/11:00am 32.0 34.3 22.1 55 6.8 SSE 13 20 7 11 1010.1 1008.4 0.0
11/10:30am 31.2 33.7 22.5 60 6.0 SSE 13 19 7 10 1010.5 1008.8 0.0
11/10:00am 30.3 33.6 22.5 63 5.4 SE 9 17 5 9 1010.5 1008.8 0.0
11/09:30am 29.3 33.1 22.8 68 4.5 SSE 7 15 4 8 1010.8 1009.0 0.0
11/09:00am 28.2 32.4 23.1 74 3.5 S 6 11 3 6 1010.9 1009.1 16.2
11/08:30am 27.2 31.5 22.6 76 3.1 S 4 9 2 5 1010.5 1008.8 16.2
11/08:00am 26.1 31.0 22.4 80 2.5 CALM 0 2 0 1 1010.1 1008.4 16.2
11/07:30am 24.7 30.0 23.1 91 1.1 CALM 0 6 0 3 1009.9 1008.2 16.2
11/07:00am 24.0 29.3 23.0 94 0.7 CALM 0 0 0 0 1009.5 1007.8 16.2
11/06:30am 24.0 29.3 23.1 95 0.6 CALM 0 0 0 0 1008.9 1007.2 16.2
11/06:00am 24.0 29.3 23.1 95 0.6 CALM 0 0 0 0 1008.6 1006.9 16.2
11/05:30am 24.2 29.1 23.0 93 0.8 E 2 6 1 3 1008.2 1006.5 16.2
11/05:00am 24.1 29.2 22.7 92 1.0 CALM 0 0 0 0 1008.0 1006.3 16.2
11/04:30am 24.2 29.3 22.6 91 1.1 CALM 0 0 0 0 1007.7 1005.9 16.2
11/04:00am 24.5 29.2 22.0 86 1.7 CALM 0 0 0 0 1007.6 1005.8 16.2
11/03:30am 24.5 29.3 22.2 87 1.5 CALM 0 0 0 0 1007.8 1006.0 16.2
11/03:00am 24.4 29.2 22.1 87 1.5 CALM 0 0 0 0 1008.0 1006.3 16.2
11/02:30am 24.4 28.0 22.1 87 1.5 NW 6 11 3 6 1008.2 1006.5 16.2
11/02:00am 24.6 28.2 22.1 86 1.7 NNW 6 11 3 6 1008.5 1006.8 16.2
11/01:30am 24.8 29.6 22.1 85 1.8 CALM 0 0 0 0 1008.7 1007.0 16.2
11/01:00am 25.2 29.2 22.1 83 2.1 N 4 9 2 5 1008.9 1007.2 16.2
11/12:30am 25.3 30.2 22.4 84 2.0 CALM 0 4 0 2 1008.8 1007.1 16.2
11/12:00am 25.3 29.9 21.8 81 2.4 CALM 0 6 0 3 1009.1 1007.4 16.2
 
Date/Time
EST
Temp
°C
App
Temp
°C
Dew
Point
Rel
Hum
%
Delta-T
°C
Wind Press
QNH
hPa
Press
MSL
hPa
Rain
since 9 am
mm
Dir
 
Spd
km/h
Gust
km/h
Spd
kts
Gust
kts
10/11:30pm 25.1 29.3 22.4 85 1.8 ENE 4 11 2 6 1009.1 1007.4 16.2
10/11:00pm 24.9 29.7 22.2 85 1.8 CALM 0 4 0 2 1008.7 1007.0 16.2
10/10:30pm 24.9 27.7 21.6 82 2.2 NE 9 13 5 7 1008.5 1006.8 16.2
10/10:00pm 24.8 27.0 21.9 84 2.0 NE 13 22 7 12 1008.5 1006.8 16.2
10/09:30pm 24.9 26.2 22.4 86 1.7 NE 19 28 10 15 1008.4 1006.7 16.2
10/09:00pm 25.0 26.1 23.6 92 1.0 NNE 24 32 13 17 1008.7 1007.0 16.0
10/08:30pm 24.7 26.3 23.8 95 0.6 NNE 22 32 12 17 1008.8 1007.1 15.4
10/08:00pm 23.8 26.0 22.6 93 0.8 N 15 20 8 11 1008.3 1006.6 14.4
10/07:39pm 24.0 25.9 22.1 89 1.3 N 15 35 8 19 1008.4 1006.7 13.8
10/07:30pm 25.5 30.5 23.9 91 1.1 NNW 4 9 2 5 1008.2 1006.5 13.0
10/07:00pm 24.8 24.6 22.1 85 1.8 SW 26 37 14 20 1007.7 1005.9 5.4
10/06:48pm 26.2 26.4 22.1 78 2.8 S 24 32 13 17 1007.2 1005.4 2.2
10/06:37pm 26.6 23.6 21.4 73 3.5 SSE 39 57 21 31 1006.5 1004.7 1.0
10/06:30pm 30.1 26.8 17.9 48 7.9 SE 32 57 17 31 1005.8 1004.1 0.0
10/06:28pm 31.3 29.2 19.0 48 8.1 SSE 28 54 15 29 1005.8 1004.1 0.0
10/06:00pm 36.1 36.5 18.2 34 11.8 SE 13 20 7 11 1005.2 1003.5 0.0
10/05:30pm 35.7 37.1 18.7 36 11.3 SE 9 20 5 11 1005.0 1003.3 0.0
10/05:00pm 34.8 36.6 18.4 38 10.8 SSW 6 13 3 7 1004.9 1003.2 0.0
10/04:30pm 33.0 33.0 19.8 45 8.8 WSW 19 30 10 16 1005.2 1003.5 0.0
10/04:00pm 35.4 34.1 16.7 33 12.1 ESE 19 32 10 17 1005.2 1003.5 0.0
10/03:30pm 35.9 35.1 18.0 34 11.7 ESE 19 30 10 16 1005.4 1003.7 0.0
10/03:00pm 36.6 36.2 17.2 31 12.7 ESE 15 30 8 16 1005.9 1004.2 0.0
10/02:30pm 36.5 35.6 18.1 33 12.1 E 20 33 11 18 1006.4 1004.6 0.0
10/02:00pm 36.4 36.6 19.4 37 11.4 SE 17 30 9 16 1006.9 1005.1 0.0
10/01:30pm 36.1 36.5 19.9 38 10.9 E 17 26 9 14 1007.5 1005.7 0.0
10/01:00pm 35.4 35.4 19.7 39 10.5 E 19 32 10 17 1008.0 1006.3 0.0
10/12:30pm 34.6 35.8 20.6 44 9.5 ESE 15 28 8 15 1008.4 1006.7 0.0
10/12:00pm 35.0 37.3 21.3 45 9.4 E 11 19 6 10 1008.7 1007.0 0.0
10/11:30am 33.9 36.4 21.0 47 8.8 ESE 9 24 5 13 1009.2 1007.5 0.0
10/11:00am 33.5 36.0 21.0 48 8.5 ENE 9 24 5 13 1009.4 1007.7 0.0
10/10:30am 32.4 35.7 21.9 54 7.2 ESE 7 15 4 8 1009.7 1008.0 0.0
10/10:00am 31.4 35.2 21.6 56 6.7 NE 4 13 2 7 1010.0 1008.3 0.0
10/09:30am 30.7 35.4 22.6 62 5.6 E 2 9 1 5 1010.0 1008.3 0.0
10/09:00am 29.0 33.8 22.2 66 4.6 CALM 0 0 0 0 1009.9 1008.2 0.0
10/08:30am 27.9 33.1 22.8 74 3.5 CALM 0 0 0 0 1009.8 1008.1 0.0
10/08:00am 27.3 32.6 23.1 78 2.9 CALM 0 0 0 0 1009.6 1007.9 0.0
10/07:30am 26.7 32.0 23.0 80 2.5 CALM 0 0 0 0 1009.3 1007.6 0.0
10/07:00am 26.4 31.6 22.9 81 2.4 CALM 0 0 0 0 1009.1 1007.4 0.0
10/06:30am 26.4 31.5 22.7 80 2.5 CALM 0 0 0 0 1008.7 1007.0 0.0
10/06:00am 26.5 31.6 22.6 79 2.7 CALM 0 0 0 0 1008.3 1006.6 0.0
10/05:30am 26.5 31.4 22.3 78 2.8 CALM 0 0 0 0 1007.9 1006.2 0.0
10/05:00am 26.6 31.7 22.7 79 2.7 CALM 0 0 0 0 1007.7 1005.9 0.0
10/04:30am 26.5 31.6 22.6 79 2.7 CALM 0 0 0 0 1007.8 1006.0 0.0
10/04:00am 26.5 31.7 22.8 80 2.5 CALM 0 0 0 0 1007.8 1006.0 0.0
10/03:30am 26.6 31.8 22.9 80 2.5 CALM 0 0 0 0 1008.0 1006.3 0.0
10/03:00am 26.6 31.8 22.9 80 2.5 CALM 0 6 0 3 1008.0 1006.3 0.0
10/02:30am 26.6 31.1 22.9 80 2.5 N 4 9 2 5 1008.2 1006.5 0.0
10/02:00am 26.6 31.3 22.7 79 2.7 NNW 2 7 1 4 1008.4 1006.7 0.0
10/01:30am 26.8 31.5 22.6 78 2.9 NNW 2 7 1 4 1008.6 1006.9 0.0
10/01:00am 26.8 30.0 22.4 77 3.0 N 9 13 5 7 1008.9 1007.2 0.0
10/12:30am 27.1 30.7 22.3 75 3.3 N 7 11 4 6 1009.1 1007.4 0.0
10/12:00am 27.5 30.4 21.8 71 3.9 N 9 17 5 9 1009.2 1007.5 0.0
 
Date/Time
EST
Temp
°C
App
Temp
°C
Dew
Point
Rel
Hum
%
Delta-T
°C
Wind Press
QNH
hPa
Press
MSL
hPa
Rain
since 9 am
mm
Dir
 
Spd
km/h
Gust
km/h
Spd
kts
Gust
kts
09/11:30pm 27.7 29.7 21.5 69 4.2 NE 13 19 7 10 1009.1 1007.4 0.0
09/11:00pm 27.6 30.0 21.6 70 4.0 NNE 11 15 6 8 1009.2 1007.5 0.0
09/10:30pm 27.8 31.3 21.8 70 4.1 NE 6 15 3 8 1009.1 1007.4 0.0
09/10:00pm 27.8 30.2 21.6 69 4.2 NE 11 15 6 8 1008.6 1006.9 0.0
09/09:30pm 28.1 31.3 21.6 68 4.4 ENE 7 13 4 7 1008.6 1006.9 0.0
09/09:00pm 28.4 31.0 21.9 68 4.4 NE 11 17 6 9 1008.6 1006.9 0.0
09/08:30pm 28.7 31.2 21.0 63 5.2 ENE 9 15 5 8 1008.4 1006.7 0.0
09/08:00pm 29.0 31.1 21.0 62 5.4 ENE 11 19 6 10 1008.1 1006.4 0.0

Other Formats:

Comma delimited format used in spreadsheet applications
http://www.bom.gov.au/fwo/IDQ60801/IDQ60801.94255.axf

JavaScript Object Notation format (JSON) in row-major order
http://www.bom.gov.au/fwo/IDQ60801/IDQ60801.94255.json